Time;durP1;ratioP1;P1;durP2;ratioP2;P2;SDS_P1;SDS_P2;PMS_P1;PMS_P2;Temp;Humidity;BMP_temperature;BMP_pressure;BME280_temperature;BME280_humidity;BME280_pressure;Samples;Min_cycle;Max_cycle;Signal;HPM_P1;HPM_P2
2023/05/09 00:01:31;;;;;;;;;;;;;;;15.98;38.09;100705.03;4443079;32;34175;-82
2023/05/09 00:03:58;;;;;;;;;;;;;;;15.89;37.98;100695.13;4441859;32;34105;-82
2023/05/09 00:06:26;;;;;;;;;;;;;;;16.24;36.86;100699.03;4444870;32;33467;-82
2023/05/09 00:08:54;;;;;;;;;;;;;;;15.54;40.86;100698.13;4429516;32;33033;-82
2023/05/09 00:11:21;;;;;;;;;;;;;;;14.83;42.04;100698.72;4440103;32;31971;-82
2023/05/09 00:13:49;;;;;;;;;;;;;;;13.21;44.53;100709.59;4428491;32;34558;-82
2023/05/09 00:16:16;;;;;;;;;;;;;;;13.12;44.50;100710.06;4437827;32;33540;-81
2023/05/09 00:18:46;;;;;;;;;;;;;;;14.12;42.09;100706.97;4452947;32;34197;-82
2023/05/09 00:21:13;;;;;;;;;;;;;;;13.65;43.29;100699.56;4449864;32;33761;-82
2023/05/09 00:23:40;;;;;;;;;;;;;;;14.47;41.64;100705.00;4436018;32;34436;-82
2023/05/09 00:26:08;;;;;;;;;;;;;;;13.70;42.96;100691.16;4425461;32;33820;-82
2023/05/09 00:28:36;;;;;;;;;;;;;;;13.18;46.03;100702.53;4442660;32;34748;-82
2023/05/09 00:31:04;;;;;;;;;;;;;;;12.96;48.54;100704.91;4446858;32;32612;-82
2023/05/09 00:33:31;;;;;;;;;;;;;;;14.03;44.97;100696.12;4444722;32;34044;-82
2023/05/09 00:35:59;;;;;;;;;;;;;;;15.34;41.18;100693.84;4432572;32;32069;-82
2023/05/09 00:38:27;;;;;;;;;;;;;;;16.40;39.49;100683.88;4438158;32;34358;-82
2023/05/09 00:40:54;;;;;;;;;;;;;;;15.78;41.01;100686.91;4426612;32;34043;-82
2023/05/09 00:43:21;;;;;;;;;;;;;;;15.39;40.60;100687.06;4433283;32;33878;-82
2023/05/09 00:45:48;;;;;;;;;;;;;;;16.40;38.17;100676.94;4423684;32;34081;-82
2023/05/09 00:48:16;;;;;;;;;;;;;;;15.74;40.00;100682.38;4418179;32;33864;-82
2023/05/09 00:50:43;;;;;;;;;;;;;;;15.94;39.11;100687.47;4433875;32;34097;-82
2023/05/09 00:53:10;;;;;;;;;;;;;;;14.67;41.08;100682.44;4438602;32;34709;-82
2023/05/09 00:55:38;;;;;;;;;;;;;;;12.19;46.94;100688.91;4433515;32;33050;-82
2023/05/09 00:58:05;;;;;;;;;;;;;;;10.93;52.59;100692.34;4430223;32;33537;-82
2023/05/09 01:00:33;;;;;;;;;;;;;;;11.36;52.27;100699.09;4420520;32;34194;-82
2023/05/09 01:03:00;;;;;;;;;;;;;;;12.42;47.55;100693.50;4441921;32;34320;-82
2023/05/09 01:05:39;;;;;;;;;;;;;;;14.15;43.35;100685.34;4449289;32;33547;-82
2023/05/09 01:08:40;;;;;;;;;;;;;;;15.04;40.33;100675.25;4431515;32;34185;-82
2023/05/09 01:11:20;;;;;;;;;;;;;;;15.47;40.52;100679.53;4402118;32;32497;-82
2023/05/09 01:13:54;;;;;;;;;;;;;;;14.51;42.15;100691.28;4442171;32;34620;-82
2023/05/09 01:16:27;;;;;;;;;;;;;;;15.42;40.60;100687.22;4420906;32;31676;-82
2023/05/09 01:18:58;;;;;;;;;;;;;;;15.29;40.21;100680.59;4430198;32;32580;-82
2023/05/09 01:21:28;;;;;;;;;;;;;;;15.25;39.75;100678.72;4434190;32;34385;-81
2023/05/09 01:23:59;;;;;;;;;;;;;;;14.85;40.92;100682.28;4430070;32;33886;-82
2023/05/09 01:26:44;;;;;;;;;;;;;;;14.97;41.09;100681.94;4416556;32;32712;-82
2023/05/09 01:29:11;;;;;;;;;;;;;;;15.39;40.42;100678.38;4431933;32;33848;-82
2023/05/09 01:31:39;;;;;;;;;;;;;;;15.32;40.86;100679.84;4442683;32;34117;-82
2023/05/09 01:34:07;;;;;;;;;;;;;;;15.26;40.43;100679.59;4427583;32;34482;-82
2023/05/09 01:36:35;;;;;;;;;;;;;;;15.43;39.11;100668.13;4437033;32;32987;-82
2023/05/09 01:39:03;;;;;;;;;;;;;;;15.46;38.73;100667.34;4418334;32;33714;-81
2023/05/09 01:41:30;;;;;;;;;;;;;;;15.42;38.83;100668.94;4425348;32;34208;-81
2023/05/09 01:43:58;;;;;;;;;;;;;;;15.61;38.88;100670.53;4438264;32;34805;-82
2023/05/09 01:46:25;;;;;;;;;;;;;;;15.46;38.89;100665.59;4416273;32;32830;-81
2023/05/09 01:48:53;;;;;;;;;;;;;;;14.69;40.28;100664.25;4437814;32;36244;-82
2023/05/09 01:51:20;;;;;;;;;;;;;;;14.69;40.43;100665.13;4432127;32;34824;-82
2023/05/09 01:53:47;;;;;;;;;;;;;;;13.94;41.46;100662.72;4436909;32;34113;-81
2023/05/09 01:56:16;;;;;;;;;;;;;;;13.94;41.95;100665.31;4423405;32;31847;-81
2023/05/09 01:58:44;;;;;;;;;;;;;;;14.88;40.69;100661.56;4435417;32;33809;-81
2023/05/09 02:01:13;;;;;;;;;;;;;;;14.35;41.77;100668.88;4445288;32;34158;-81
2023/05/09 02:03:41;;;;;;;;;;;;;;;15.11;40.43;100662.50;4433563;32;34009;-81
2023/05/09 02:06:08;;;;;;;;;;;;;;;13.97;43.09;100659.38;4427583;32;34057;-81
2023/05/09 02:08:35;;;;;;;;;;;;;;;12.09;51.70;100675.34;4433664;32;35023;-81
2023/05/09 02:11:02;;;;;;;;;;;;;;;13.26;47.85;100655.19;4431036;32;35043;-81
2023/05/09 02:13:32;;;;;;;;;;;;;;;12.20;51.41;100669.00;4448129;32;34635;-82
2023/05/09 02:15:59;;;;;;;;;;;;;;;13.46;47.75;100649.25;4426798;32;32605;-82
2023/05/09 02:18:28;;;;;;;;;;;;;;;14.16;45.69;100645.47;4429345;32;34259;-82
2023/05/09 02:20:55;;;;;;;;;;;;;;;11.66;50.21;100652.25;4433915;32;33399;-82
2023/05/09 02:23:22;;;;;;;;;;;;;;;12.30;48.21;100660.87;4431454;32;31998;-82
2023/05/09 02:25:50;;;;;;;;;;;;;;;12.62;48.33;100669.44;4432201;32;33487;-82
2023/05/09 02:28:17;;;;;;;;;;;;;;;11.38;51.02;100655.97;4423443;32;34004;-82
2023/05/09 02:30:44;;;;;;;;;;;;;;;12.91;47.31;100646.59;4428355;32;34018;-82
2023/05/09 02:33:12;;;;;;;;;;;;;;;11.65;50.89;100646.19;4427828;32;34145;-81
2023/05/09 02:35:41;;;;;;;;;;;;;;;11.54;50.82;100655.97;4426733;32;34183;-82
2023/05/09 02:38:08;;;;;;;;;;;;;;;10.73;53.20;100656.63;4433291;32;34018;-81
2023/05/09 02:40:35;;;;;;;;;;;;;;;10.13;55.87;100650.47;4417692;32;33243;-82
2023/05/09 02:43:03;;;;;;;;;;;;;;;9.91;57.44;100658.59;4430909;32;34415;-82
2023/05/09 02:45:30;;;;;;;;;;;;;;;9.44;58.41;100654.88;4424266;32;34444;-82
2023/05/09 02:47:58;;;;;;;;;;;;;;;9.69;57.99;100656.41;4435395;32;34439;-81
2023/05/09 02:50:26;;;;;;;;;;;;;;;9.81;56.87;100647.72;4428656;32;34782;-81
2023/05/09 02:52:53;;;;;;;;;;;;;;;9.82;57.21;100658.97;4421624;32;34135;-82
2023/05/09 02:55:22;;;;;;;;;;;;;;;9.88;58.08;100648.09;4436622;32;33443;-82
2023/05/09 02:57:50;;;;;;;;;;;;;;;10.23;56.77;100651.09;4441282;32;33705;-82
2023/05/09 03:00:31;;;;;;;;;;;;;;;11.80;52.06;100648.69;4440874;32;34881;-82
2023/05/09 03:02:59;;;;;;;;;;;;;;;11.09;53.19;100650.03;4425847;32;32387;-82
2023/05/09 03:05:27;;;;;;;;;;;;;;;9.30;58.97;100655.72;4449674;32;33253;-82
2023/05/09 03:07:54;;;;;;;;;;;;;;;9.62;58.50;100652.56;4438679;32;33641;-81
2023/05/09 03:10:21;;;;;;;;;;;;;;;9.25;58.64;100648.56;4450654;32;33901;-82
2023/05/09 03:12:49;;;;;;;;;;;;;;;9.40;59.49;100648.59;4451222;32;34210;-81
2023/05/09 03:15:16;;;;;;;;;;;;;;;9.27;59.51;100651.22;4437529;32;32755;-82
2023/05/09 03:17:44;;;;;;;;;;;;;;;9.21;59.97;100646.56;4403929;32;34088;-81
2023/05/09 03:20:11;;;;;;;;;;;;;;;8.82;61.10;100640.59;4442835;32;34233;-82
2023/05/09 03:22:39;;;;;;;;;;;;;;;8.81;61.54;100653.44;4441893;32;34619;-82
2023/05/09 03:25:06;;;;;;;;;;;;;;;10.35;56.74;100647.47;4433229;32;33600;-82
2023/05/09 03:27:33;;;;;;;;;;;;;;;10.06;57.22;100645.72;4448615;32;33625;-82
2023/05/09 03:30:02;;;;;;;;;;;;;;;10.50;56.04;100650.09;4447234;32;34942;-82
2023/05/09 03:32:30;;;;;;;;;;;;;;;10.54;55.99;100649.47;4450679;32;34030;-82
2023/05/09 03:34:57;;;;;;;;;;;;;;;10.17;55.78;100647.25;4453178;32;33320;-81
2023/05/09 03:37:25;;;;;;;;;;;;;;;9.72;58.10;100649.75;4425017;32;33127;-81
2023/05/09 03:39:53;;;;;;;;;;;;;;;10.20;56.81;100650.94;4453458;32;34653;-82
2023/05/09 03:42:21;;;;;;;;;;;;;;;9.43;58.63;100653.09;4431743;32;32509;-82
2023/05/09 03:44:49;;;;;;;;;;;;;;;9.60;59.31;100657.63;4448561;32;33482;-82
2023/05/09 03:47:20;;;;;;;;;;;;;;;9.58;58.80;100656.66;4437334;32;35926;-82
2023/05/09 03:49:47;;;;;;;;;;;;;;;9.44;58.60;100666.12;4441235;32;34253;-82
2023/05/09 03:52:16;;;;;;;;;;;;;;;10.73;55.31;100652.31;4423228;32;34633;-82
2023/05/09 03:54:44;;;;;;;;;;;;;;;12.06;50.96;100657.91;4437201;32;34026;-82
2023/05/09 03:57:11;;;;;;;;;;;;;;;12.28;52.42;100657.31;4423703;32;34601;-82
2023/05/09 03:59:39;;;;;;;;;;;;;;;12.25;51.73;100654.56;4415625;32;33378;-82
2023/05/09 04:02:06;;;;;;;;;;;;;;;13.22;49.02;100655.88;4420316;32;32913;-82
2023/05/09 04:04:34;;;;;;;;;;;;;;;13.64;47.77;100656.16;4406220;32;31895;-82
2023/05/09 04:07:01;;;;;;;;;;;;;;;13.68;47.21;100647.66;4408557;32;34839;-82
2023/05/09 04:09:29;;;;;;;;;;;;;;;13.91;45.81;100654.78;4437309;32;34889;-82
2023/05/09 04:11:56;;;;;;;;;;;;;;;13.94;45.65;100649.69;4436256;32;34399;-82
2023/05/09 04:14:24;;;;;;;;;;;;;;;13.19;47.31;100659.19;4422885;32;31190;-82
2023/05/09 04:16:51;;;;;;;;;;;;;;;13.28;47.47;100654.44;4410062;32;33653;-82
2023/05/09 04:19:19;;;;;;;;;;;;;;;13.42;46.50;100655.13;4437158;32;35432;-82
2023/05/09 04:21:47;;;;;;;;;;;;;;;13.36;46.43;100658.31;4410224;32;34503;-82
2023/05/09 04:24:14;;;;;;;;;;;;;;;14.25;44.34;100652.78;4437003;32;33464;-82
2023/05/09 04:26:42;;;;;;;;;;;;;;;13.77;44.95;100651.56;4423384;32;34222;-82
2023/05/09 04:29:09;;;;;;;;;;;;;;;13.55;45.75;100654.88;4410339;32;33227;-82
2023/05/09 04:31:37;;;;;;;;;;;;;;;14.43;44.19;100650.06;4436405;32;34060;-82
2023/05/09 04:34:05;;;;;;;;;;;;;;;13.42;45.80;100652.50;4437295;32;33504;-82
2023/05/09 04:36:33;;;;;;;;;;;;;;;13.81;44.69;100657.81;4407713;32;34997;-82
2023/05/09 04:39:01;;;;;;;;;;;;;;;13.81;44.79;100654.28;4406312;32;33205;-82
2023/05/09 04:41:29;;;;;;;;;;;;;;;12.83;47.16;100663.53;4422883;32;33968;-82
2023/05/09 04:43:57;;;;;;;;;;;;;;;13.28;46.31;100669.16;4422632;32;33058;-82
2023/05/09 04:46:24;;;;;;;;;;;;;;;12.62;47.36;100669.44;4422210;32;33231;-82
2023/05/09 04:48:52;;;;;;;;;;;;;;;12.68;47.23;100666.25;4436675;32;33854;-82
2023/05/09 04:51:20;;;;;;;;;;;;;;;12.90;47.03;100665.59;4424484;32;33569;-82
2023/05/09 04:53:47;;;;;;;;;;;;;;;13.61;44.79;100654.28;4424638;32;33919;-82
2023/05/09 04:56:15;;;;;;;;;;;;;;;14.26;43.67;100662.38;4419508;32;32618;-82
2023/05/09 04:58:43;;;;;;;;;;;;;;;13.99;43.83;100662.06;4419525;32;33980;-82
2023/05/09 05:01:10;;;;;;;;;;;;;;;13.74;45.04;100658.34;4437087;32;32867;-82
2023/05/09 05:03:38;;;;;;;;;;;;;;;14.57;42.98;100658.53;4411924;32;31630;-82
2023/05/09 05:06:06;;;;;;;;;;;;;;;14.03;44.38;100661.38;4435861;32;35052;-82
2023/05/09 05:08:33;;;;;;;;;;;;;;;13.86;44.49;100656.28;4424855;32;34298;-82
2023/05/09 05:11:01;;;;;;;;;;;;;;;14.20;44.02;100668.22;4438794;32;34946;-82
2023/05/09 05:13:29;;;;;;;;;;;;;;;14.67;42.30;100661.56;4438972;32;33574;-82
2023/05/09 05:15:57;;;;;;;;;;;;;;;15.45;40.82;100658.63;4424255;32;34556;-82
2023/05/09 05:18:28;;;;;;;;;;;;;;;14.88;42.51;100669.41;4399697;32;33024;-82
2023/05/09 05:20:55;;;;;;;;;;;;;;;15.77;40.12;100666.81;4421883;32;33249;-83
2023/05/09 05:23:22;;;;;;;;;;;;;;;15.23;41.42;100669.03;4434399;32;33094;-83
2023/05/09 05:25:51;;;;;;;;;;;;;;;15.47;40.89;100667.41;4438873;32;34216;-83
2023/05/09 05:28:18;;;;;;;;;;;;;;;14.32;44.47;100678.28;4424531;32;34355;-85
2023/05/09 05:30:46;;;;;;;;;;;;;;;15.53;41.29;100665.03;4437786;32;33665;-83
2023/05/09 05:33:13;;;;;;;;;;;;;;;15.87;40.51;100671.53;4418006;32;31564;-81
2023/05/09 05:35:40;;;;;;;;;;;;;;;16.59;38.29;100670.63;4437599;32;34924;-80
2023/05/09 05:38:08;;;;;;;;;;;;;;;15.91;39.81;100668.22;4437891;32;32694;-81
2023/05/09 05:40:35;;;;;;;;;;;;;;;14.99;41.86;100658.50;4426110;32;34048;-82
2023/05/09 05:43:03;;;;;;;;;;;;;;;15.28;41.52;100668.41;4424216;32;32431;-83
2023/05/09 05:45:30;;;;;;;;;;;;;;;15.46;41.49;100659.50;4424511;32;34022;-83
2023/05/09 05:47:58;;;;;;;;;;;;;;;14.84;42.27;100656.16;4438037;32;34841;-83
2023/05/09 05:50:25;;;;;;;;;;;;;;;14.78;42.83;100658.53;4438135;32;34089;-82
2023/05/09 05:52:53;;;;;;;;;;;;;;;15.85;40.78;100662.75;4438608;32;33395;-82
2023/05/09 05:55:20;;;;;;;;;;;;;;;16.14;40.19;100659.44;4437424;32;34464;-83
2023/05/09 05:57:47;;;;;;;;;;;;;;;15.09;41.93;100661.56;4436596;32;34057;-83
2023/05/09 06:00:15;;;;;;;;;;;;;;;15.09;41.89;100656.34;4410106;32;34728;-84
2023/05/09 06:02:44;;;;;;;;;;;;;;;14.63;43.26;100657.06;4437841;32;34377;-83
2023/05/09 06:05:12;;;;;;;;;;;;;;;14.52;43.66;100666.09;4438021;32;33667;-83
2023/05/09 06:07:43;;;;;;;;;;;;;;;15.12;42.47;100658.16;4423931;32;34635;-83
2023/05/09 06:10:10;;;;;;;;;;;;;;;16.96;39.07;100655.28;4437933;32;33601;-83
2023/05/09 06:12:37;;;;;;;;;;;;;;;16.89;39.17;100649.84;4438291;32;33314;-82
2023/05/09 06:15:05;;;;;;;;;;;;;;;16.45;39.83;100664.03;4424361;32;33681;-83
2023/05/09 06:17:34;;;;;;;;;;;;;;;17.25;38.77;100653.63;4436492;32;34959;-84
2023/05/09 06:20:01;;;;;;;;;;;;;;;16.31;38.90;100659.19;4438616;32;34331;-83
2023/05/09 06:22:29;;;;;;;;;;;;;;;15.36;41.14;100655.66;4424461;32;32513;-83
2023/05/09 06:24:57;;;;;;;;;;;;;;;16.04;41.01;100655.62;4437162;32;34805;-83
2023/05/09 06:27:24;;;;;;;;;;;;;;;15.82;41.51;100657.44;4424132;32;34102;-83
2023/05/09 06:29:52;;;;;;;;;;;;;;;16.19;40.81;100648.31;4437893;32;34302;-83
2023/05/09 06:32:20;;;;;;;;;;;;;;;16.37;40.63;100652.41;4432949;32;32856;-83
2023/05/09 06:34:47;;;;;;;;;;;;;;;15.57;41.66;100655.59;4410631;32;32613;-84
2023/05/09 06:37:14;;;;;;;;;;;;;;;15.74;41.34;100651.00;4437800;32;34797;-84
2023/05/09 06:39:42;;;;;;;;;;;;;;;15.53;42.00;100654.59;4432517;32;34797;-84
2023/05/09 06:42:09;;;;;;;;;;;;;;;15.35;42.66;100646.03;4437644;32;33337;-84
2023/05/09 06:44:36;;;;;;;;;;;;;;;15.63;42.17;100644.50;4438103;32;34856;-83
2023/05/09 06:47:04;;;;;;;;;;;;;;;16.00;41.41;100646.78;4437677;32;34222;-84
2023/05/09 06:49:31;;;;;;;;;;;;;;;15.47;42.41;100648.22;4428239;32;34095;-83
2023/05/09 06:51:58;;;;;;;;;;;;;;;16.66;39.69;100651.69;4451174;32;33222;-84
2023/05/09 06:54:26;;;;;;;;;;;;;;;16.92;39.48;100646.47;4436251;32;34795;-84
2023/05/09 06:56:53;;;;;;;;;;;;;;;16.77;39.68;100645.94;4430461;32;34905;-83
2023/05/09 06:59:20;;;;;;;;;;;;;;;17.64;38.27;100634.72;4439118;32;34028;-83
2023/05/09 07:01:48;;;;;;;;;;;;;;;17.38;38.13;100632.19;4436985;32;33482;-83
2023/05/09 07:04:15;;;;;;;;;;;;;;;17.20;38.71;100629.03;4431123;32;34224;-83
2023/05/09 07:06:42;;;;;;;;;;;;;;;18.17;37.83;100631.88;4447337;32;34646;-84
2023/05/09 07:09:10;;;;;;;;;;;;;;;18.52;37.68;100627.53;4450522;32;34195;-84
2023/05/09 07:11:37;;;;;;;;;;;;;;;19.41;35.03;100623.56;4450027;32;34085;-84
2023/05/09 07:14:04;;;;;;;;;;;;;;;19.34;35.33;100625.16;4435919;32;33817;-84
2023/05/09 07:16:32;;;;;;;;;;;;;;;18.51;36.53;100630.16;4441806;32;33101;-83
2023/05/09 07:19:03;;;;;;;;;;;;;;;18.90;36.30;100625.03;4424011;32;33884;-83
2023/05/09 07:21:33;;;;;;;;;;;;;;;18.95;36.33;100610.28;4446059;32;33328;-83
2023/05/09 07:24:01;;;;;;;;;;;;;;;19.57;35.17;100614.28;4452595;32;34091;-83
2023/05/09 07:26:28;;;;;;;;;;;;;;;19.82;34.72;100616.59;4423795;32;33213;-83
2023/05/09 07:28:55;;;;;;;;;;;;;;;21.56;32.06;100608.09;4450198;32;33873;-83
2023/05/09 07:31:23;;;;;;;;;;;;;;;21.91;30.91;100602.38;4443471;32;34105;-83
2023/05/09 07:33:50;;;;;;;;;;;;;;;23.52;28.69;100608.09;4442279;32;34856;-83
2023/05/09 07:36:17;;;;;;;;;;;;;;;23.66;28.81;100609.06;4440250;32;34176;-83
2023/05/09 07:38:46;;;;;;;;;;;;;;;25.54;25.64;100595.06;4443981;32;34538;-84
2023/05/09 07:41:14;;;;;;;;;;;;;;;25.33;25.71;100593.34;4425210;32;34140;-84
2023/05/09 07:43:41;;;;;;;;;;;;;;;26.30;24.14;100591.09;4443896;32;34065;-84
2023/05/09 07:46:09;;;;;;;;;;;;;;;26.88;23.54;100585.31;4450912;32;34917;-85
2023/05/09 07:48:36;;;;;;;;;;;;;;;27.07;23.49;100586.00;4443514;32;35263;-83
2023/05/09 07:51:03;;;;;;;;;;;;;;;27.24;23.25;100598.25;4430021;32;33190;-83
2023/05/09 07:53:31;;;;;;;;;;;;;;;27.68;22.66;100588.00;4443674;32;34151;-83
2023/05/09 07:55:58;;;;;;;;;;;;;;;28.80;21.52;100573.00;4448406;32;35338;-85
2023/05/09 07:58:25;;;;;;;;;;;;;;;27.55;22.91;100577.53;4450599;32;33927;-83
2023/05/09 08:00:54;;;;;;;;;;;;;;;26.68;23.53;100574.00;4449103;32;34088;-83
2023/05/09 08:03:22;;;;;;;;;;;;;;;26.06;24.12;100566.47;4444249;32;33973;-84
2023/05/09 08:05:52;;;;;;;;;;;;;;;26.06;23.77;100570.91;4447858;32;33983;-83
2023/05/09 08:08:19;;;;;;;;;;;;;;;27.09;23.31;100567.38;4445078;32;34102;-83
2023/05/09 08:10:46;;;;;;;;;;;;;;;26.67;23.35;100564.25;4444175;32;35412;-83
2023/05/09 08:13:13;;;;;;;;;;;;;;;26.38;24.07;100556.50;4449681;32;33972;-83
2023/05/09 08:15:41;;;;;;;;;;;;;;;27.36;23.30;100560.03;4428667;32;34576;-84
2023/05/09 08:18:09;;;;;;;;;;;;;;;27.42;23.11;100551.97;4441073;32;34334;-84
2023/05/09 08:20:36;;;;;;;;;;;;;;;28.18;22.31;100549.13;4449070;32;32290;-82
2023/05/09 08:23:03;;;;;;;;;;;;;;;28.02;22.96;100546.72;4446507;32;34371;-83
2023/05/09 08:25:30;;;;;;;;;;;;;;;27.98;22.46;100550.31;4444559;32;34080;-83
2023/05/09 08:27:58;;;;;;;3.03;0.80;;;;;;;27.43;22.46;100551.06;4442261;32;35049;-83
2023/05/09 08:30:28;;;;;;;2.17;0.80;;;;;;;28.14;22.15;100540.31;4448442;32;33632;-83
2023/05/09 08:32:55;;;;;;;;;;;;;;;27.48;22.83;100548.34;4440538;32;35656;-83
2023/05/09 08:35:23;;;;;;;3.33;1.00;;;;;;;28.34;21.38;100537.34;4444894;32;35002;-84
2023/05/09 08:37:51;;;;;;;3.65;0.90;;;;;;;27.41;23.49;100552.84;4451051;32;33919;-83
2023/05/09 08:40:18;;;;;;;2.22;1.00;;;;;;;26.78;23.59;100545.56;4445783;32;33167;-83
2023/05/09 08:42:48;;;;;;;2.22;0.90;;;;;;;26.68;23.78;100539.47;4439873;32;33829;-83
2023/05/09 08:45:15;;;;;;;;;;;;;;;26.99;23.36;100540.03;4433053;32;33908;-84
2023/05/09 08:47:42;;;;;;;;;;;;;;;27.22;23.18;100541.53;4427064;32;34161;-84
2023/05/09 08:50:13;;;;;;;;;;;;;;;26.31;23.50;100545.06;4422603;32;32290;-83
2023/05/09 08:52:41;;;;;;;;;;;;;;;26.83;24.22;100539.31;4448170;32;34192;-83
2023/05/09 08:55:09;;;;;;;;;;;;;;;26.37;24.17;100536.19;4429068;32;33941;-83
2023/05/09 08:57:36;;;;;;;;;;;;;;;25.59;24.58;100532.22;4441755;32;34012;-83
2023/05/09 09:00:06;;;;;;;;;;;;;;;25.62;24.71;100538.41;4436088;32;33124;-83
2023/05/09 09:02:33;;;;;;;;;;;;;;;26.87;23.43;100530.41;4439207;32;34907;-84
2023/05/09 09:05:01;;;;;;;;;;;;;;;24.28;25.98;100535.09;4433508;32;34879;-85
2023/05/09 09:07:29;;;;;;;;;;;;;;;24.12;27.34;100529.81;4448259;32;33744;-83
2023/05/09 09:09:57;;;;;;;;;;;;;;;24.80;26.11;100524.53;4436785;32;32863;-83
2023/05/09 09:12:24;;;;;;;;;;;;;;;23.44;27.66;100530.50;4426688;32;33358;-83
2023/05/09 09:14:53;;;;;;;;;;;;;;;23.44;28.21;100527.88;4439874;32;34169;-83
2023/05/09 09:17:22;;;;;;;;;;;;;;;24.59;27.03;100516.59;4446795;32;33794;-83
2023/05/09 09:19:50;;;;;;;;;;;;;;;23.88;27.93;100508.63;4425484;32;33398;-84
2023/05/09 09:22:17;;;;;;;;;;;;;;;23.51;28.43;100525.25;4421287;32;34185;-84
2023/05/09 09:24:45;;;;;;;;;;;;;;;24.11;27.42;100513.94;4446532;32;33983;-82
2023/05/09 09:27:12;;;;;;;;;;;;;;;24.32;27.33;100505.13;4434677;32;33879;-82
2023/05/09 09:29:39;;;;;;;;;;;;;;;24.07;29.03;100518.34;4442887;32;32951;-82
2023/05/09 09:32:07;;;;;;;;;;;;;;;23.86;27.25;100521.84;4447716;32;34977;-82
2023/05/09 09:34:35;;;;;;;;;;;;;;;23.95;26.57;100510.38;4443347;32;34750;-81
2023/05/09 09:37:02;;;;;;;;;;;;;;;23.94;27.51;100513.94;4428991;32;31830;-80
2023/05/09 09:39:30;;;;;;;;;;;;;;;24.86;26.59;100508.63;4434659;32;35065;-80
2023/05/09 09:41:57;;;;;;;;;;;;;;;25.07;25.80;100512.06;4445250;32;34010;-80
2023/05/09 09:44:25;;;;;;;;;;;;;;;24.24;29.58;100507.78;4434986;32;34183;-80
2023/05/09 09:46:54;;;;;;;;;;;;;;;24.38;27.43;100504.22;4440791;32;34942;-81
2023/05/09 09:49:21;;;;;;;;;;;;;;;25.22;26.59;100508.50;4434175;32;33665;-80
2023/05/09 09:51:52;;;;;;;;;;;;;;;25.40;25.45;100512.84;4422084;32;34017;-80
2023/05/09 09:54:21;;;;;;;;;;;;;;;25.82;23.75;100492.28;4443215;32;33499;-81
2023/05/09 09:56:50;;;;;;;;;;;;;;;25.22;24.70;100498.78;4427998;32;33874;-81
2023/05/09 09:59:18;;;;;;;;;;;;;;;25.72;24.90;100495.91;4433785;32;33409;-81
2023/05/09 10:01:53;;;;;;;;;;;;;;;25.84;23.20;100495.81;4431003;32;33301;-81
2023/05/09 10:04:21;;;;;;;;;;;;;;;26.46;23.17;100491.81;4429297;32;33858;-82
2023/05/09 10:06:52;;;;;;;;;;;;;;;26.04;22.47;100491.28;4436470;32;35106;-81
2023/05/09 10:09:20;;;;;;;;;;;;;;;26.74;22.10;100491.56;4446035;32;34419;-82
2023/05/09 10:11:48;;;;;;;;;;;;;;;25.87;23.21;100479.88;4430191;32;34057;-80
2023/05/09 10:14:16;;;;;;;;;;;;;;;25.79;23.75;100481.72;4426715;32;34925;-81
2023/05/09 10:16:43;;;;;;;;;;;;;;;26.64;22.17;100479.28;4428123;32;34649;-81
2023/05/09 10:19:11;;;;;;;;;;;;;;;25.80;22.87;100489.62;4424374;32;32927;-81
2023/05/09 10:21:38;;;;;;;;;;;;;;;26.29;23.27;100480.47;4429016;32;33327;-81
2023/05/09 10:24:06;;;;;;;;;;;;;;;26.44;22.00;100477.66;4450288;32;33884;-81
2023/05/09 10:26:33;;;;;;;;;;;;;;;26.52;21.80;100474.03;4441286;32;34839;-81
2023/05/09 10:29:00;;;;;;;;;;;;;;;26.46;22.85;100470.56;4425061;32;33305;-80
2023/05/09 10:31:28;;;;;;;;;;;;;;;27.94;21.65;100468.72;4427943;32;34227;-81
2023/05/09 10:33:56;;;;;;;;;;;;;;;26.35;23.00;100469.78;4423830;32;33650;-80
2023/05/09 10:36:23;;;;;;;;;;;;;;;27.01;23.34;100469.09;4438268;32;34853;-81
2023/05/09 10:38:52;;;;;;;;;;;;;;;27.73;20.79;100463.72;4437219;32;32827;-81
2023/05/09 10:41:22;;;;;;;;;;;;;;;26.66;21.61;100474.81;4434459;32;34068;-81
2023/05/09 10:43:50;;;;;;;;;;;;;;;27.28;21.05;100467.03;4435934;32;33679;-82
2023/05/09 10:46:17;;;;;;;;;;;;;;;26.69;21.91;100469.44;4447283;32;34400;-83
2023/05/09 10:48:45;;;;;;;;;;;;;;;26.64;22.63;100474.84;4427369;32;33065;-84
2023/05/09 10:51:12;;;;;;;;;;;;;;;27.02;21.67;100462.00;4431477;32;34076;-83
2023/05/09 10:53:40;;;;;;;;;;;;;;;27.75;22.44;100461.91;4442959;32;34187;-83
2023/05/09 10:56:07;;;;;;;;;;;;;;;26.58;23.03;100474.87;4445999;32;34721;-83
2023/05/09 10:58:36;;;;;;;;;;;;;;;26.16;23.13;100476.16;4445045;32;32584;-84
2023/05/09 11:01:03;;;;;;;;;;;;;;;26.00;22.97;100470.06;4442361;32;33636;-86
2023/05/09 11:03:50;;;;;;;;;;;;;;;25.39;23.55;100471.34;4436172;32;35024;-85
2023/05/09 11:06:36;;;;;;;;;;;;;;;25.71;23.55;100473.81;4440068;32;34284;-82
2023/05/09 11:09:29;;;;;;;;;;;;;;;25.46;23.72;100462.47;4445280;32;33351;-85
2023/05/09 11:11:58;;;;;;;;;;;;;;;25.24;23.86;100465.19;4439139;32;34996;-84
2023/05/09 11:14:29;;;;;;;;;;;;;;;25.56;22.65;100456.19;4439773;32;33737;-85
2023/05/09 11:17:26;;;;;;;;;;;;;;;26.29;23.28;100451.25;4432706;32;34449;-84
2023/05/09 11:19:57;;;;;;;;;;;;;;;25.33;24.60;100444.84;4422710;32;33363;-83
2023/05/09 11:22:26;;;;;;;;;;;;;;;25.35;24.78;100454.56;4436063;32;34052;-83
2023/05/09 11:25:04;;;;;;;;;;;;;;;24.39;25.04;100453.91;4445054;32;33527;-83
2023/05/09 11:27:45;;;;;;;;;;;;;;;24.86;24.92;100450.31;4451055;32;34873;-83
2023/05/09 11:30:17;;;;;;;;;;;;;;;25.17;24.23;100434.28;4444123;32;33171;-84
2023/05/09 11:32:44;;;;;;;;;;;;;;;24.39;25.62;100438.03;4430653;32;33467;-81
2023/05/09 11:35:19;;;;;;;;;;;;;;;23.91;26.28;100445.12;4433013;32;32945;-82
2023/05/09 11:37:47;;;;;;;;;;;;;;;24.28;25.98;100437.16;4442140;32;34787;-81
2023/05/09 11:40:16;;;;;;;;;;;;;;;24.09;25.31;100439.84;4436652;32;32864;-84
2023/05/09 11:42:44;;;;;;;;;;;;;;;24.20;25.10;100436.28;4426698;32;33911;-83
2023/05/09 11:45:12;;;;;;;;;;;;;;;25.10;24.50;100437.84;4436987;32;33556;-83
2023/05/09 11:47:40;;;;;;;;;;;;;;;24.51;25.78;100427.47;4431889;32;32569;-83
2023/05/09 11:50:08;;;;;;;;;;;;;;;25.32;26.52;100433.34;4419169;32;33379;-81
2023/05/09 11:52:37;;;;;;;;;;;;;;;25.11;25.22;100429.91;4433487;32;35024;-81
2023/05/09 11:55:05;;;;;;;;;;;;;;;24.78;26.03;100430.91;4440220;32;35486;-81
2023/05/09 11:57:32;;;;;;;;;;;;;;;25.29;25.93;100423.63;4441685;32;34887;-85
2023/05/09 12:00:00;;;;;;;;;;;;;;;25.90;24.32;100416.13;4434042;32;33602;-81
2023/05/09 12:02:28;;;;;;;;;;;;;;;26.28;23.47;100406.97;4435032;32;32494;-84
2023/05/09 12:04:55;;;;;;;;;;;;;;;25.87;24.18;100405.56;4436781;32;33806;-83
2023/05/09 12:07:23;;;;;;;;;;;;;;;24.96;25.39;100407.88;4444905;32;34257;-83
2023/05/09 12:09:51;;;;;;;;;;;;;;;25.18;25.10;100398.91;4429895;32;33908;-84
2023/05/09 12:12:20;;;;;;;;;;;;;;;23.62;26.55;100406.25;4428681;32;33563;-83
2023/05/09 12:14:47;;;;;;;;;;;;;;;25.04;25.35;100401.66;4437586;32;34823;-85
2023/05/09 12:17:15;;;;;;;;;;;;;;;24.18;25.72;100406.28;4430873;32;33703;-85
2023/05/09 12:19:43;;;;;;;;;;;;;;;24.17;26.21;100407.19;4434076;32;32020;-84
2023/05/09 12:22:10;;;;;;;;;;;;;;;24.42;26.43;100394.78;4424975;32;34418;-83
2023/05/09 12:24:37;;;;;;;;;;;;;;;24.70;24.94;100399.13;4430534;32;33871;-82
2023/05/09 12:27:06;;;;;;;;;;;;;;;24.64;25.10;100398.28;4440221;32;33988;-83
2023/05/09 12:29:34;;;;;;;;;;;;;;;24.60;25.47;100399.19;4434998;32;33849;-85
2023/05/09 12:32:01;;;;;;;;;;;;;;;24.41;25.06;100393.03;4422154;32;34359;-82
2023/05/09 12:34:29;;;;;;;;;;;;;;;24.86;24.96;100392.03;4429074;32;34886;-81
2023/05/09 12:36:58;;;;;;;;;;;;;;;25.42;24.96;100374.06;4439634;32;34464;-82
2023/05/09 12:39:26;;;;;;;;;;;;;;;24.77;26.07;100380.59;4445087;32;33200;-82
2023/05/09 12:41:53;;;;;;;;;;;;;;;24.32;26.22;100378.06;4441923;32;34037;-81